DESCA EDMA-EDML

Flight info

Callsign DESCA
Flight time 0h 41m
Altitude
Route
Aircraft C172

Departure

Time 2026-05-04 16:00
Airport Augsburg Airport (EDMA)

Arrival

Time 2026-05-04 16:41
Airport Landshut Airfield (EDML)
Time Latitude Longitude Altitude Speed Heading
2026-05-04 15:52 48.42352 10.92911 1518 ft 0 kts 71°
2026-05-04 15:53 48.42353 10.92916 1518 ft 2 kts 46°
2026-05-04 15:53 48.42377 10.92914 1518 ft 4 kts 325°
2026-05-04 15:53 48.42380 10.92855 1518 ft 7 kts 272°
2026-05-04 15:54 48.42362 10.92769 1518 ft 9 kts 250°
2026-05-04 15:54 48.42341 10.92662 1518 ft 11 kts 244°
2026-05-04 15:54 48.42310 10.92538 1518 ft 13 kts 237°
2026-05-04 15:54 48.42281 10.92410 1518 ft 4 kts 262°
2026-05-04 15:55 48.42284 10.92397 1518 ft 0 kts 333°
2026-05-04 15:57 48.42284 10.92396 1518 ft 0 kts 333°
2026-05-04 15:58 48.42311 10.92381 1517 ft 9 kts 341°
2026-05-04 15:58 48.42364 10.92453 1517 ft 17 kts 69°
2026-05-04 15:58 48.42457 10.92875 1518 ft 63 kts 72°
2026-05-04 15:59 48.42585 10.93582 1615 ft 73 kts 72°
2026-05-04 15:59 48.42705 10.94338 1771 ft 72 kts 71°
2026-05-04 15:59 48.42889 10.95031 1917 ft 72 kts 60°
2026-05-04 15:59 48.43126 10.95685 2068 ft 72 kts 54°
2026-05-04 16:00 48.43384 10.96323 2203 ft 72 kts 56°
2026-05-04 16:00 48.43650 10.96957 2359 ft 70 kts 51°
2026-05-04 16:00 48.43959 10.97532 2490 ft 71 kts 47°
2026-05-04 16:00 48.44257 10.98115 2635 ft 70 kts 48°
2026-05-04 16:01 48.44556 10.98680 2803 ft 67 kts 48°
2026-05-04 16:01 48.44871 10.99219 2907 ft 71 kts 45°
2026-05-04 16:01 48.45319 10.99552 2991 ft 78 kts 16°
2026-05-04 16:01 48.45908 10.99700 3009 ft 91 kts
2026-05-04 16:02 48.46541 10.99795 3067 ft 91 kts
2026-05-04 16:02 48.47208 10.99803 3015 ft 102 kts 358°
2026-05-04 16:02 48.48666 10.99496 2942 ft 107 kts 352°
2026-05-04 16:03 48.49387 10.99127 2914 ft 106 kts 345°
2026-05-04 16:03 48.50074 10.98798 2872 ft 108 kts 352°
2026-05-04 16:03 48.50768 10.98655 2949 ft 97 kts 356°
2026-05-04 16:03 48.51433 10.98606 3004 ft 94 kts
2026-05-04 16:04 48.52027 10.98953 3060 ft 92 kts 36°
2026-05-04 16:04 48.52622 11.00409 3388 ft 79 kts 62°
2026-05-04 16:04 48.52841 11.01172 3521 ft 79 kts 64°
2026-05-04 16:05 48.53106 11.01854 3676 ft 74 kts 53°
2026-05-04 16:05 48.53407 11.02515 3781 ft 77 kts 54°
2026-05-04 16:05 48.53986 11.03856 4027 ft 76 kts 56°
2026-05-04 16:06 48.54279 11.04535 4144 ft 77 kts 56°
2026-05-04 16:06 48.55066 11.06357 4466 ft 78 kts 57°
2026-05-04 16:07 48.55459 11.07275 4626 ft 78 kts 57°
2026-05-04 16:07 48.56298 11.09372 4965 ft 78 kts 61°
2026-05-04 16:08 48.56567 11.10125 4998 ft 85 kts 64°
2026-05-04 16:08 48.56974 11.12927 5014 ft 103 kts 111°
2026-05-04 16:09 48.56731 11.15120 4998 ft 109 kts 101°
2026-05-04 16:09 48.56438 11.17378 4994 ft 107 kts 101°
2026-05-04 16:10 48.56164 11.19526 4998 ft 102 kts 101°
2026-05-04 16:11 48.55780 11.22681 5003 ft 102 kts 98°
2026-05-04 16:11 48.55652 11.23732 5002 ft 102 kts 98°
2026-05-04 16:12 48.55181 11.26872 4998 ft 102 kts 95°
2026-05-04 16:12 48.54975 11.30019 4999 ft 101 kts 90°
2026-05-04 16:13 48.54901 11.32159 5001 ft 101 kts 92°
2026-05-04 16:13 48.54987 11.34253 5015 ft 100 kts 84°
2026-05-04 16:14 48.55044 11.36360 5014 ft 101 kts 87°
2026-05-04 16:14 48.55035 11.38489 5014 ft 101 kts 90°
2026-05-04 16:15 48.54929 11.41685 5014 ft 102 kts 92°
2026-05-04 16:16 48.54817 11.43820 5012 ft 102 kts 93°
2026-05-04 16:16 48.55001 11.46960 5011 ft 101 kts 71°
2026-05-04 16:17 48.55386 11.49003 5012 ft 101 kts 76°
2026-05-04 16:18 48.55752 11.52147 5012 ft 102 kts 82°
2026-05-04 16:18 48.55833 11.53218 5012 ft 102 kts 83°
2026-05-04 16:19 48.55981 11.56423 5013 ft 102 kts 86°
2026-05-04 16:19 48.56022 11.58560 5014 ft 102 kts 88°
2026-05-04 16:20 48.56023 11.61795 5011 ft 103 kts 89°
2026-05-04 16:20 48.55998 11.63945 5010 ft 102 kts 89°
2026-05-04 16:21 48.55913 11.67226 4880 ft 107 kts 92°
2026-05-04 16:22 48.55832 11.69493 4688 ft 109 kts 92°
2026-05-04 16:22 48.55725 11.72963 4362 ft 112 kts 91°
2026-05-04 16:23 48.55667 11.76539 3998 ft 114 kts 90°
2026-05-04 16:24 48.55579 11.81355 3515 ft 114 kts 86°
2026-05-04 16:25 48.55710 11.83735 3264 ft 114 kts 83°
2026-05-04 16:26 48.55979 11.88331 2989 ft 101 kts 82°
2026-05-04 16:26 48.56131 11.91345 2988 ft 92 kts 81°
2026-05-04 16:27 48.56219 11.93256 2987 ft 90 kts 81°
2026-05-04 16:28 48.56362 11.96074 2990 ft 89 kts 81°
2026-05-04 16:28 48.56250 11.98997 2985 ft 108 kts 124°
2026-05-04 16:29 48.53535 12.01550 2985 ft 118 kts 150°
2026-05-04 16:30 48.51518 12.01505 2423 ft 106 kts 250°
2026-05-04 16:31 48.51098 11.99606 2348 ft 94 kts 271°
2026-05-04 16:31 48.49958 11.98197 2151 ft 95 kts 159°
2026-05-04 16:32 48.50239 12.00348 1926 ft 72 kts 56°
2026-05-04 16:33 48.50670 12.01683 1584 ft 72 kts 66°
2026-05-04 16:33 48.51051 12.02959 1321 ft 55 kts 65°
2026-05-04 16:34 48.51349 12.04048 1401 ft 69 kts 73°
2026-05-04 16:34 48.51418 12.04781 1544 ft 73 kts 97°
2026-05-04 16:35 48.51777 12.06498 1988 ft 71 kts
2026-05-04 16:35 48.53249 12.06995 2357 ft 81 kts 343°
2026-05-04 16:36 48.53756 12.06676 2473 ft 80 kts 345°
2026-05-04 16:36 48.53862 12.05013 2526 ft 102 kts 257°
2026-05-04 16:37 48.53457 12.02842 2501 ft 109 kts 262°
2026-05-04 16:37 48.53303 12.01721 2498 ft 111 kts 263°
2026-05-04 16:37 48.53028 11.99381 2453 ft 112 kts 270°
2026-05-04 16:38 48.52883 11.97097 2461 ft 111 kts 238°
2026-05-04 16:39 48.50779 11.97434 2387 ft 112 kts 158°
2026-05-04 16:39 48.49536 11.98285 2131 ft 78 kts 118°
2026-05-04 16:40 48.49902 11.99549 1966 ft 72 kts 41°
2026-05-04 16:40 48.50457 12.00917 1731 ft 79 kts 65°
2026-05-04 16:41 48.50878 12.02374 1423 ft 68 kts 62°
2026-05-04 16:41 48.51266 12.03605 1318 ft 14 kts 15°
2026-05-04 16:42 48.51242 12.03440 1319 ft 5 kts 245°